createdAt,value
2019-04-10T00:00:07.776Z,102042.95
2019-04-10T00:02:37.810Z,102039.06
2019-04-10T00:05:07.648Z,102038.03
2019-04-10T00:07:39.687Z,102043.77
2019-04-10T00:10:09.745Z,102043.25
2019-04-10T00:12:40.349Z,102042.54
2019-04-10T00:15:12.716Z,102046.42
2019-04-10T00:17:45.086Z,102048.70
2019-04-10T00:20:16.218Z,102047.67
2019-04-10T00:22:46.528Z,102047.13
2019-04-10T00:25:17.070Z,102046.24
2019-04-10T00:27:48.216Z,102052.79
2019-04-10T00:30:20.725Z,102058.34
2019-04-10T00:32:50.619Z,102051.22
2019-04-10T00:35:23.501Z,102050.97
2019-04-10T00:37:55.530Z,102056.50
2019-04-10T00:40:28.022Z,102056.77
2019-04-10T00:42:59.330Z,102053.70
2019-04-10T00:45:29.948Z,102055.73
2019-04-10T00:47:59.583Z,102061.30
2019-04-10T00:50:29.231Z,102059.08
2019-04-10T00:53:03.429Z,102063.14
2019-04-10T00:55:32.889Z,102060.95
2019-04-10T00:58:03.681Z,102065.34
2019-04-10T01:00:37.517Z,102055.16
2019-04-10T01:03:07.563Z,102065.62
2019-04-10T01:05:37.711Z,102059.54
2019-04-10T01:08:08.704Z,102065.95
2019-04-10T01:10:38.800Z,102065.78
2019-04-10T01:14:05.463Z,102063.73
2019-04-10T01:16:35.843Z,102053.58
2019-04-10T01:19:05.821Z,102062.83
2019-04-10T01:21:35.275Z,102062.47
2019-04-10T01:24:05.758Z,102066.69
2019-04-10T01:26:35.066Z,102069.02
2019-04-10T01:29:05.151Z,102067.81
2019-04-10T01:31:37.284Z,102067.81
2019-04-10T01:34:07.506Z,102073.71
2019-04-10T01:36:37.477Z,102076.91
2019-04-10T01:39:10.437Z,102080.25
2019-04-10T01:41:39.936Z,102081.61
2019-04-10T01:44:11.052Z,102071.77
2019-04-10T01:46:42.603Z,102072.94
2019-04-10T01:49:13.874Z,102076.12
2019-04-10T01:51:45.781Z,102070.90
2019-04-10T01:54:15.209Z,102079.50
2019-04-10T01:56:48.215Z,102082.02
2019-04-10T01:59:23.627Z,102081.85
2019-04-10T02:02:07.224Z,102079.43
2019-04-10T02:04:36.959Z,102085.45
2019-04-10T02:07:11.535Z,102089.48
2019-04-10T02:09:41.634Z,102088.28
2019-04-10T02:12:14.636Z,102090.95
2019-04-10T02:14:44.713Z,102087.13
2019-04-10T02:17:14.740Z,102087.75
2019-04-10T02:19:48.259Z,102085.64
2019-04-10T02:22:17.884Z,102085.11
2019-04-10T02:25:28.425Z,102086.78
2019-04-10T02:27:58.543Z,102085.38
2019-04-10T02:30:30.282Z,102082.11
2019-04-10T02:33:02.064Z,102084.25
2019-04-10T02:35:34.203Z,102079.20
2019-04-10T02:38:21.166Z,102083.79
2019-04-10T02:40:37.360Z,102079.00
2019-04-10T02:43:08.354Z,102087.09
2019-04-10T02:45:40.366Z,102086.81
2019-04-10T02:48:12.153Z,102086.76
2019-04-10T02:50:45.003Z,102090.11
2019-04-10T02:53:15.304Z,102087.08
2019-04-10T02:55:45.223Z,102091.76
2019-04-10T02:58:16.035Z,102089.20
2019-04-10T03:00:46.400Z,102087.80
2019-04-10T03:03:16.159Z,102090.41
2019-04-10T03:05:46.663Z,102092.12
2019-04-10T03:08:17.403Z,102096.58
2019-04-10T03:10:53.551Z,102089.27
2019-04-10T03:13:19.804Z,102092.42
2019-04-10T03:15:51.694Z,102091.20
2019-04-10T03:18:23.122Z,102093.63
2019-04-10T03:20:55.115Z,102097.61
2019-04-10T03:23:25.205Z,102089.97
2019-04-10T03:25:54.711Z,102098.66
2019-04-10T03:28:24.970Z,102105.03
2019-04-10T03:30:56.501Z,102102.09
2019-04-10T03:33:47.238Z,102112.53
2019-04-10T03:36:15.631Z,102107.92
2019-04-10T03:38:56.752Z,102111.61
2019-04-10T03:41:24.146Z,102118.89
2019-04-10T03:43:54.761Z,102127.45
2019-04-10T03:46:24.200Z,102120.65
2019-04-10T03:48:57.748Z,102127.05
2019-04-10T03:51:30.303Z,102128.50
2019-04-10T03:54:00.038Z,102133.42
2019-04-10T03:56:34.388Z,102137.23
2019-04-10T03:59:04.166Z,102139.52
2019-04-10T04:01:35.320Z,102140.74
2019-04-10T04:04:07.192Z,102142.39
2019-04-10T04:06:37.212Z,102142.58
2019-04-10T04:09:11.942Z,102145.12
2019-04-10T04:11:41.999Z,102148.55
2019-04-10T04:14:14.454Z,102148.36
2019-04-10T04:16:45.444Z,102152.52
2019-04-10T04:19:17.712Z,102154.95
2019-04-10T04:21:56.367Z,102163.64
2019-04-10T04:24:26.636Z,102157.62
2019-04-10T04:26:58.584Z,102165.37
2019-04-10T04:29:28.783Z,102162.80
2019-04-10T04:31:59.117Z,102154.21
2019-04-10T04:34:31.757Z,102169.41
2019-04-10T04:37:01.111Z,102168.02
2019-04-10T04:39:31.542Z,102166.39
2019-04-10T04:42:03.047Z,102177.16
2019-04-10T04:44:33.313Z,102179.11
2019-04-10T04:47:06.399Z,102178.69
2019-04-10T04:49:37.820Z,102183.12
2019-04-10T04:52:11.817Z,102189.56
2019-04-10T04:54:44.045Z,102190.55
2019-04-10T04:57:14.693Z,102196.89
2019-04-10T04:59:48.518Z,102197.44
2019-04-10T05:02:20.025Z,102201.58
2019-04-10T05:04:53.516Z,102201.95
2019-04-10T05:07:26.374Z,102204.47
2019-04-10T05:09:56.709Z,102211.47
2019-04-10T05:12:27.706Z,102211.27
2019-04-10T05:15:09.571Z,102215.48
2019-04-10T05:17:39.841Z,102218.34
2019-04-10T05:20:11.253Z,102216.52
2019-04-10T05:22:41.611Z,102220.77
2019-04-10T05:25:13.263Z,102226.94
2019-04-10T05:27:44.748Z,102227.58
2019-04-10T05:30:14.462Z,102225.24
2019-04-10T05:32:45.914Z,102220.96
2019-04-10T05:35:17.563Z,102223.34
2019-04-10T05:37:48.420Z,102227.19
2019-04-10T05:40:19.922Z,102228.58
2019-04-10T05:42:49.248Z,102235.59
2019-04-10T05:45:18.594Z,102237.92
2019-04-10T05:47:48.199Z,102241.16
2019-04-10T05:50:19.909Z,102249.11
2019-04-10T05:52:49.688Z,102248.68
2019-04-10T05:55:20.356Z,102248.73
2019-04-10T05:57:51.390Z,102254.95
2019-04-10T06:00:22.975Z,102258.19
2019-04-10T06:02:52.851Z,102254.28
2019-04-10T06:05:22.410Z,102253.59
2019-04-10T06:07:52.334Z,102252.81
2019-04-10T06:10:23.004Z,102250.21
2019-04-10T06:12:53.021Z,102251.50
2019-04-10T06:15:23.201Z,102252.33
2019-04-10T06:17:54.432Z,102254.32
2019-04-10T06:20:25.099Z,102254.81
2019-04-10T06:22:59.022Z,102262.06
2019-04-10T06:25:28.880Z,102261.03
2019-04-10T06:27:59.680Z,102261.80
2019-04-10T06:30:30.581Z,102265.50
2019-04-10T06:33:00.118Z,102269.64
2019-04-10T06:35:30.599Z,102266.45
2019-04-10T06:38:02.256Z,102269.91
2019-04-10T06:40:31.984Z,102266.99
2019-04-10T06:43:06.496Z,102269.45
2019-04-10T06:45:36.697Z,102265.57
2019-04-10T06:48:07.552Z,102265.59
2019-04-10T06:50:37.165Z,102268.56
2019-04-10T06:53:08.713Z,102267.55
2019-04-10T06:55:40.906Z,102263.02
2019-04-10T06:58:12.388Z,102263.38
2019-04-10T07:00:46.668Z,102256.26
2019-04-10T07:03:14.889Z,102259.27
2019-04-10T07:06:00.506Z,102254.25
2019-04-10T07:08:22.475Z,102257.22
2019-04-10T07:11:01.992Z,102259.85
2019-04-10T07:13:26.047Z,102266.28
2019-04-10T07:15:58.067Z,102264.19
2019-04-10T07:18:26.675Z,102264.73
2019-04-10T07:21:01.503Z,102267.58
2019-04-10T07:23:31.866Z,102269.16
2019-04-10T07:26:01.742Z,102264.96
2019-04-10T07:28:31.759Z,102267.05
2019-04-10T07:31:05.333Z,102272.94
2019-04-10T07:33:40.613Z,102272.91
2019-04-10T07:36:14.143Z,102271.80
2019-04-10T07:38:43.498Z,102265.91
2019-04-10T07:41:19.413Z,102262.69
2019-04-10T07:43:44.760Z,102268.34
2019-04-10T07:46:15.233Z,102270.80
2019-04-10T07:48:45.573Z,102272.40
2019-04-10T07:51:15.335Z,102274.13
2019-04-10T07:53:45.170Z,102266.97
2019-04-10T07:56:18.014Z,102269.52
2019-04-10T07:58:48.257Z,102280.70
2019-04-10T08:01:19.936Z,102279.49
2019-04-10T08:03:51.395Z,102285.77
2019-04-10T08:06:21.043Z,102284.16
2019-04-10T08:08:51.278Z,102282.45
2019-04-10T08:11:21.902Z,102281.69
2019-04-10T08:13:53.289Z,102289.44
2019-04-10T08:16:27.447Z,102286.67
2019-04-10T08:18:57.911Z,102292.80
2019-04-10T08:21:29.459Z,102282.38
2019-04-10T08:24:00.581Z,102293.80
2019-04-10T08:26:30.404Z,102290.47
2019-04-10T08:29:02.202Z,102276.36
2019-04-10T08:31:34.492Z,102282.08
2019-04-10T08:34:04.003Z,102277.69
2019-04-10T08:36:35.306Z,102283.25
2019-04-10T08:39:07.154Z,102279.98
2019-04-10T08:41:37.268Z,102281.23
2019-04-10T08:44:06.892Z,102286.26
2019-04-10T08:46:37.809Z,102276.05
2019-04-10T08:49:07.810Z,102281.30
2019-04-10T08:51:39.394Z,102290.95
2019-04-10T08:54:09.990Z,102281.63
2019-04-10T08:56:40.955Z,102273.26
2019-04-10T08:59:13.842Z,102280.36
2019-04-10T09:01:45.192Z,102282.25
2019-04-10T09:04:14.830Z,102285.80
2019-04-10T09:06:46.009Z,102279.05
2019-04-10T09:09:15.517Z,102276.53
2019-04-10T09:11:45.110Z,102273.82
2019-04-10T09:14:14.622Z,102274.64
2019-04-10T09:16:44.851Z,102275.34
2019-04-10T09:19:16.286Z,102278.36
2019-04-10T09:21:47.978Z,102285.96
2019-04-10T09:24:17.546Z,102276.73
2019-04-10T09:26:48.686Z,102282.10
2019-04-10T09:29:21.879Z,102289.67
2019-04-10T09:31:56.316Z,102291.88
2019-04-10T09:34:27.994Z,102285.59
2019-04-10T09:36:57.725Z,102287.45
2019-04-10T09:39:29.598Z,102286.52
2019-04-10T09:41:59.455Z,102291.81
2019-04-10T09:44:29.762Z,102284.59
2019-04-10T09:47:00.022Z,102278.21
2019-04-10T09:49:38.973Z,102281.19
2019-04-10T09:52:02.740Z,102288.63
2019-04-10T09:54:32.957Z,102288.47
2019-04-10T09:57:03.502Z,102289.30
2019-04-10T09:59:39.278Z,102289.02
2019-04-10T10:02:09.209Z,102287.45
2019-04-10T10:04:39.733Z,102295.13
2019-04-10T10:07:10.284Z,102299.32
2019-04-10T10:09:43.111Z,102287.69
2019-04-10T10:12:13.636Z,102286.00
2019-04-10T10:14:44.317Z,102286.58
2019-04-10T10:17:16.785Z,102288.23
2019-04-10T10:19:48.492Z,102292.39
2019-04-10T10:22:17.947Z,102292.63
2019-04-10T10:24:47.347Z,102285.73
2019-04-10T10:27:17.761Z,102291.53
2019-04-10T10:29:48.102Z,102287.06
2019-04-10T10:32:21.272Z,102297.11
2019-04-10T10:34:50.891Z,102293.71
2019-04-10T10:37:20.269Z,102299.98
2019-04-10T10:39:52.835Z,102295.73
2019-04-10T10:42:24.000Z,102296.53
2019-04-10T10:44:58.481Z,102291.16
2019-04-10T10:47:29.268Z,102307.67
2019-04-10T10:50:01.547Z,102300.66
2019-04-10T10:52:35.360Z,102291.80
2019-04-10T10:55:07.542Z,102300.38
2019-04-10T10:57:40.119Z,102286.25
2019-04-10T11:00:13.086Z,102298.90
2019-04-10T11:02:41.614Z,102305.42
2019-04-10T11:05:13.748Z,102305.45
2019-04-10T11:07:43.039Z,102321.13
2019-04-10T11:10:19.655Z,102311.87
2019-04-10T11:12:46.675Z,102317.25
2019-04-10T11:15:18.565Z,102322.41
2019-04-10T11:17:51.901Z,102323.94
2019-04-10T11:20:21.891Z,102326.23
2019-04-10T11:22:51.322Z,102329.34
2019-04-10T11:25:22.146Z,102330.56
2019-04-10T11:27:52.164Z,102331.01
2019-04-10T11:30:22.435Z,102334.03
2019-04-10T11:32:54.811Z,102330.80
2019-04-10T11:35:25.275Z,102335.05
2019-04-10T11:40:27.978Z,102334.20
2019-04-10T11:43:04.756Z,102334.97
2019-04-10T11:45:41.115Z,102340.52
2019-04-10T11:48:05.995Z,102337.56
2019-04-10T11:50:37.997Z,102343.44
2019-04-10T11:53:09.699Z,102346.44
2019-04-10T11:55:45.236Z,102346.62
2019-04-10T11:58:11.260Z,102350.98
2019-04-10T12:00:52.507Z,102360.73
2019-04-10T12:03:18.570Z,102354.98
2019-04-10T12:05:49.120Z,102360.14
2019-04-10T12:08:45.263Z,102356.98
2019-04-10T12:11:10.767Z,102359.42
2019-04-10T12:13:24.136Z,102358.85
2019-04-10T12:15:53.650Z,102357.66
2019-04-10T12:18:26.838Z,102363.11
2019-04-10T12:20:59.725Z,102367.16
2019-04-10T12:23:29.286Z,102369.17
2019-04-10T12:26:01.284Z,102367.66
2019-04-10T12:28:30.742Z,102366.02
2019-04-10T12:31:01.767Z,102372.66
2019-04-10T12:33:32.354Z,102365.30
2019-04-10T12:36:02.437Z,102368.11
2019-04-10T12:38:39.575Z,102370.43
2019-04-10T12:41:15.135Z,102373.58
2019-04-10T12:43:45.216Z,102385.88
2019-04-10T12:46:14.960Z,102381.67
2019-04-10T12:48:45.647Z,102378.97
2019-04-10T12:51:17.303Z,102381.78
2019-04-10T12:53:47.769Z,102382.95
2019-04-10T12:56:26.320Z,102379.83
2019-04-10T12:58:55.680Z,102388.97
2019-04-10T13:01:26.944Z,102383.11
2019-04-10T13:03:59.919Z,102386.83
2019-04-10T13:06:31.725Z,102396.09
2019-04-10T13:09:12.439Z,102394.60
2019-04-10T13:11:49.391Z,102396.84
2019-04-10T13:14:20.143Z,102393.36
2019-04-10T13:16:52.096Z,102397.76
2019-04-10T13:19:22.020Z,102405.97
2019-04-10T13:21:53.695Z,102411.86
2019-04-10T13:24:23.774Z,102412.61
2019-04-10T13:26:57.023Z,102407.36
2019-04-10T13:29:30.024Z,102414.84
2019-04-10T13:32:03.461Z,102408.54
2019-04-10T13:34:33.373Z,102413.47
2019-04-10T13:37:06.193Z,102403.20
2019-04-10T13:39:35.745Z,102407.30
2019-04-10T13:42:07.323Z,102410.38
2019-04-10T13:44:40.443Z,102408.50
2019-04-10T13:47:13.430Z,102402.95
2019-04-10T13:49:44.203Z,102395.69
2019-04-10T13:52:18.319Z,102406.40
2019-04-10T13:54:50.930Z,102406.00
2019-04-10T13:57:20.619Z,102404.31
2019-04-10T13:59:50.105Z,102390.22
2019-04-10T14:02:31.220Z,102399.78
2019-04-10T14:05:05.254Z,102405.89
2019-04-10T14:07:36.429Z,102407.45
2019-04-10T14:10:07.386Z,102409.19
2019-04-10T14:12:39.013Z,102419.45
2019-04-10T14:15:09.745Z,102423.15
2019-04-10T14:17:41.656Z,102420.01
2019-04-10T14:20:17.423Z,102425.83
2019-04-10T14:26:16.153Z,102432.06
2019-04-10T14:28:47.835Z,102433.55
2019-04-10T14:31:24.528Z,102439.32
2019-04-10T14:33:54.604Z,102435.27
2019-04-10T14:36:24.361Z,102444.80
2019-04-10T14:38:55.019Z,102444.01
2019-04-10T14:41:27.571Z,102443.85
2019-04-10T14:43:58.931Z,102448.22
2019-04-10T14:46:28.603Z,102443.09
2019-04-10T14:49:00.664Z,102445.92
2019-04-10T14:51:34.917Z,102445.50
2019-04-10T14:54:07.777Z,102453.00
2019-04-10T14:56:40.160Z,102453.14
2019-04-10T14:59:11.985Z,102449.65
2019-04-10T15:01:42.053Z,102461.59
2019-04-10T15:04:12.874Z,102465.67
2019-04-10T15:06:48.017Z,102467.99
2019-04-10T15:09:26.030Z,102468.05
2019-04-10T15:11:57.392Z,102470.59
2019-04-10T15:14:30.687Z,102468.67
2019-04-10T15:17:07.983Z,102469.98
2019-04-10T15:19:41.209Z,102467.47
2019-04-10T15:22:11.565Z,102465.20
2019-04-10T15:24:42.720Z,102456.85
2019-04-10T15:27:17.370Z,102464.11
2019-04-10T15:29:49.015Z,102460.80
2019-04-10T15:32:22.376Z,102467.61
2019-04-10T15:34:53.619Z,102473.69
2019-04-10T15:37:26.669Z,102467.10
2019-04-10T15:40:12.245Z,102473.11
2019-04-10T15:42:32.555Z,102466.90
2019-04-10T15:45:08.387Z,102472.28
2019-04-10T15:47:49.280Z,102480.23
2019-04-10T15:50:13.878Z,102476.02
2019-04-10T15:52:43.409Z,102474.66
2019-04-10T15:55:16.601Z,102476.16
2019-04-10T15:57:53.220Z,102485.55
2019-04-10T16:00:19.314Z,102482.54
2019-04-10T16:02:51.566Z,102481.77
2019-04-10T16:05:24.281Z,102478.98
2019-04-10T16:07:55.194Z,102483.44
2019-04-10T16:10:46.202Z,102488.75
2019-04-10T16:13:24.070Z,102488.68
2019-04-10T16:15:54.703Z,102489.66
2019-04-10T16:18:25.402Z,102487.45
2019-04-10T16:20:55.559Z,102489.13
2019-04-10T16:23:47.621Z,102492.38
2019-04-10T16:26:18.793Z,102497.06
2019-04-10T16:28:49.055Z,102497.66
2019-04-10T16:31:21.579Z,102496.86
2019-04-10T16:33:52.820Z,102502.30
2019-04-10T16:36:23.402Z,102498.50
2019-04-10T16:38:53.271Z,102501.61
2019-04-10T16:41:26.875Z,102502.20
2019-04-10T16:44:00.468Z,102504.64
2019-04-10T16:46:33.717Z,102507.30
2019-04-10T16:49:06.558Z,102502.97
2019-04-10T16:51:39.209Z,102510.77
2019-04-10T16:54:11.066Z,102506.53
2019-04-10T16:56:40.642Z,102511.53
2019-04-10T16:59:10.613Z,102510.77
2019-04-10T17:01:39.891Z,102505.31
2019-04-10T17:04:09.250Z,102505.31
2019-04-10T17:06:38.809Z,102515.75
2019-04-10T17:09:10.972Z,102518.55
2019-04-10T17:11:40.953Z,102516.23
2019-04-10T17:14:13.002Z,102523.50
2019-04-10T17:16:43.970Z,102518.81
2019-04-10T17:19:13.916Z,102524.67
2019-04-10T17:21:47.742Z,102526.20
2019-04-10T17:24:19.320Z,102526.41
2019-04-10T17:26:48.962Z,102527.95
2019-04-10T17:29:18.708Z,102530.20
2019-04-10T17:31:49.306Z,102530.27
2019-04-10T17:34:20.791Z,102527.30
2019-04-10T17:36:51.475Z,102533.27
2019-04-10T17:39:22.889Z,102536.70
2019-04-10T17:41:53.342Z,102534.36
2019-04-10T17:44:23.492Z,102534.68
2019-04-10T17:46:53.377Z,102538.45
2019-04-10T17:49:23.429Z,102539.48
2019-04-10T17:51:52.937Z,102535.11
2019-04-10T17:54:24.941Z,102543.16
2019-04-10T17:56:54.898Z,102542.55
2019-04-10T17:59:24.797Z,102547.91
2019-04-10T18:01:57.009Z,102550.68
2019-04-10T18:04:29.808Z,102550.73
2019-04-10T18:06:59.640Z,102553.19
2019-04-10T18:09:32.750Z,102561.55
2019-04-10T18:12:03.963Z,102566.16
2019-04-10T18:14:37.955Z,102568.87
2019-04-10T18:17:07.904Z,102569.19
2019-04-10T18:19:38.669Z,102571.39
2019-04-10T18:22:10.226Z,102572.44
2019-04-10T18:24:45.393Z,102578.04
2019-04-10T18:27:18.440Z,102580.13
2019-04-10T18:29:48.151Z,102580.69
2019-04-10T18:32:19.020Z,102586.18
2019-04-10T18:34:48.453Z,102588.43
2019-04-10T18:37:22.017Z,102587.64
2019-04-10T18:39:51.611Z,102582.41
2019-04-10T18:42:26.612Z,102590.40
2019-04-10T18:44:57.392Z,102595.36
2019-04-10T18:47:27.154Z,102592.17
2019-04-10T18:49:56.564Z,102602.53
2019-04-10T18:52:29.588Z,102596.09
2019-04-10T18:54:58.557Z,102600.22
2019-04-10T18:57:27.871Z,102604.53
2019-04-10T19:00:16.844Z,102603.73
2019-04-10T19:03:05.480Z,102607.98
2019-04-10T19:05:41.828Z,102610.70
2019-04-10T19:08:13.319Z,102611.53
2019-04-10T19:10:43.252Z,102616.48
2019-04-10T19:13:13.046Z,102607.85
2019-04-10T19:15:44.986Z,102616.00
2019-04-10T19:18:16.828Z,102618.72
2019-04-10T19:20:49.158Z,102618.53
2019-04-10T19:23:19.475Z,102616.65
2019-04-10T19:25:49.142Z,102619.37
2019-04-10T19:28:28.021Z,102620.56
2019-04-10T19:31:08.696Z,102621.41
2019-04-10T19:33:31.367Z,102617.84
2019-04-10T19:36:02.243Z,102619.52
2019-04-10T19:38:31.754Z,102619.01
2019-04-10T19:41:01.090Z,102618.64
2019-04-10T19:43:35.783Z,102617.92
2019-04-10T19:46:08.266Z,102625.41
2019-04-10T19:48:39.378Z,102622.48
2019-04-10T19:51:10.418Z,102619.87
2019-04-10T19:53:44.365Z,102617.08
2019-04-10T19:56:18.154Z,102618.71
2019-04-10T19:58:49.008Z,102616.31
2019-04-10T20:01:19.091Z,102620.03
2019-04-10T20:03:48.436Z,102618.02
2019-04-10T20:06:22.317Z,102625.66
2019-04-10T20:08:52.944Z,102627.07
2019-04-10T20:11:37.560Z,102624.83
2019-04-10T20:14:01.472Z,102634.66
2019-04-10T20:16:33.360Z,102637.38
2019-04-10T20:19:05.420Z,102633.95
2019-04-10T20:21:36.616Z,102637.62
2019-04-10T20:24:08.354Z,102641.42
2019-04-10T20:26:39.152Z,102634.42
2019-04-10T20:29:08.660Z,102650.22
2019-04-10T20:31:41.781Z,102650.74
2019-04-10T20:34:13.628Z,102651.22
2019-04-10T20:36:44.832Z,102655.72
2019-04-10T20:39:14.935Z,102659.53
2019-04-10T20:41:52.343Z,102654.17
2019-04-10T20:44:20.719Z,102657.28
2019-04-10T20:46:50.739Z,102660.37
2019-04-10T20:49:20.445Z,102668.53
2019-04-10T20:51:50.459Z,102665.34
2019-04-10T20:54:28.706Z,102665.09
2019-04-10T20:56:59.200Z,102672.94
2019-04-10T20:59:28.849Z,102665.14
2019-04-10T21:01:58.147Z,102675.42
2019-04-10T21:04:29.678Z,102680.30
2019-04-10T21:06:59.206Z,102681.14
2019-04-10T21:09:29.765Z,102683.70
2019-04-10T21:12:05.284Z,102686.41
2019-04-10T21:14:30.294Z,102683.34
2019-04-10T21:17:00.383Z,102685.11
2019-04-10T21:19:29.691Z,102698.70
2019-04-10T21:21:59.540Z,102699.06
2019-04-10T21:24:29.462Z,102702.46
2019-04-10T21:27:01.224Z,102703.34
2019-04-10T21:29:48.466Z,102700.26
2019-04-10T21:32:46.063Z,102700.50
2019-04-10T21:35:18.767Z,102714.26
2019-04-10T21:37:48.690Z,102711.54
2019-04-10T21:40:18.656Z,102716.62
2019-04-10T21:42:51.910Z,102718.53
2019-04-10T21:45:22.277Z,102726.92
2019-04-10T21:47:54.315Z,102727.77
2019-04-10T21:50:26.782Z,102735.44
2019-04-10T21:53:03.958Z,102733.05
2019-04-10T21:55:33.841Z,102733.05
2019-04-10T21:58:06.122Z,102734.24
2019-04-10T22:00:52.922Z,102736.80
2019-04-10T22:03:23.847Z,102732.56
2019-04-10T22:06:03.625Z,102734.28
2019-04-10T22:08:50.229Z,102739.23
2019-04-10T22:11:25.329Z,102739.75
2019-04-10T22:13:54.884Z,102737.61
2019-04-10T22:16:28.166Z,102742.73
2019-04-10T22:18:58.166Z,102739.69
2019-04-10T22:21:27.562Z,102747.00
2019-04-10T22:23:56.938Z,102737.52
2019-04-10T22:26:29.798Z,102743.62
2019-04-10T22:28:59.131Z,102738.22
2019-04-10T22:31:29.535Z,102743.66
2019-04-10T22:33:59.020Z,102743.85
2019-04-10T22:36:31.176Z,102742.00
2019-04-10T22:39:00.758Z,102745.56
2019-04-10T22:41:33.766Z,102735.37
2019-04-10T22:44:03.302Z,102743.71
2019-04-10T22:46:34.231Z,102742.19
2019-04-10T22:49:04.269Z,102749.17
2019-04-10T22:51:33.571Z,102750.70
2019-04-10T22:54:06.113Z,102753.03
2019-04-10T22:56:35.819Z,102746.11
2019-04-10T22:59:08.117Z,102753.23
2019-04-10T23:01:39.874Z,102748.98
2019-04-10T23:04:12.241Z,102750.20
2019-04-10T23:06:41.892Z,102752.09
2019-04-10T23:09:20.190Z,102750.73
2019-04-10T23:11:50.249Z,102747.63
2019-04-10T23:14:20.786Z,102749.50
2019-04-10T23:16:50.548Z,102750.56
2019-04-10T23:19:25.727Z,102752.11
2019-04-10T23:22:00.964Z,102749.88
2019-04-10T23:24:30.316Z,102749.55
2019-04-10T23:26:59.759Z,102748.73
2019-04-10T23:29:29.908Z,102757.59
2019-04-10T23:32:04.193Z,102758.27
2019-04-10T23:34:35.356Z,102754.54
2019-04-10T23:37:07.091Z,102757.42
2019-04-10T23:39:40.732Z,102757.26
2019-04-10T23:42:12.847Z,102759.13
2019-04-10T23:44:42.921Z,102763.55
2019-04-10T23:47:12.276Z,102759.00
2019-04-10T23:49:44.148Z,102761.20
2019-04-10T23:52:14.464Z,102756.95
2019-04-10T23:54:43.833Z,102763.09
2019-04-10T23:57:13.594Z,102761.05
2019-04-10T23:59:44.834Z,102764.12
